sensor_id;sensor_type;location;lat;lon;timestamp;P1;durP1;ratioP1;P2;durP2;ratioP2
3667;SDS011;24099;47.102;15.440;2023-01-01T00:02:09;6.25;;;4.13;;
3667;SDS011;24099;47.102;15.440;2023-01-01T00:04:37;10.65;;;4.20;;
3667;SDS011;24099;47.102;15.440;2023-01-01T00:07:06;6.85;;;2.45;;
3667;SDS011;24099;47.102;15.440;2023-01-01T00:09:34;6.55;;;3.05;;
3667;SDS011;24099;47.102;15.440;2023-01-01T00:12:21;14.10;;;4.30;;
3667;SDS011;24099;47.102;15.440;2023-01-01T00:14:50;4.18;;;2.80;;
3667;SDS011;24099;47.102;15.440;2023-01-01T00:17:17;7.90;;;3.67;;
3667;SDS011;24099;47.102;15.440;2023-01-01T00:19:45;3.05;;;2.08;;
3667;SDS011;24099;47.102;15.440;2023-01-01T00:22:13;5.20;;;3.05;;
3667;SDS011;24099;47.102;15.440;2023-01-01T00:24:40;15.82;;;2.50;;
3667;SDS011;24099;47.102;15.440;2023-01-01T00:27:08;7.30;;;3.55;;
3667;SDS011;24099;47.102;15.440;2023-01-01T00:29:35;5.85;;;3.10;;
3667;SDS011;24099;47.102;15.440;2023-01-01T00:32:05;5.53;;;2.45;;
3667;SDS011;24099;47.102;15.440;2023-01-01T00:34:34;8.30;;;3.45;;
3667;SDS011;24099;47.102;15.440;2023-01-01T00:37:02;4.93;;;2.80;;
3667;SDS011;24099;47.102;15.440;2023-01-01T00:39:29;5.22;;;3.15;;
3667;SDS011;24099;47.102;15.440;2023-01-01T00:41:57;3.47;;;2.33;;
3667;SDS011;24099;47.102;15.440;2023-01-01T00:44:25;2.50;;;2.28;;
3667;SDS011;24099;47.102;15.440;2023-01-01T00:46:52;4.15;;;2.85;;
3667;SDS011;24099;47.102;15.440;2023-01-01T00:49:27;8.52;;;2.83;;
3667;SDS011;24099;47.102;15.440;2023-01-01T00:51:54;4.10;;;2.55;;
3667;SDS011;24099;47.102;15.440;2023-01-01T00:54:22;6.57;;;3.45;;
3667;SDS011;24099;47.102;15.440;2023-01-01T00:56:50;3.20;;;2.20;;
3667;SDS011;24099;47.102;15.440;2023-01-01T00:59:17;4.30;;;3.00;;
3667;SDS011;24099;47.102;15.440;2023-01-01T01:01:45;4.53;;;2.80;;
3667;SDS011;24099;47.102;15.440;2023-01-01T01:04:13;8.45;;;3.15;;
3667;SDS011;24099;47.102;15.440;2023-01-01T01:06:42;4.55;;;3.35;;
3667;SDS011;24099;47.102;15.440;2023-01-01T01:09:09;7.07;;;3.42;;
3667;SDS011;24099;47.102;15.440;2023-01-01T01:11:37;3.38;;;2.22;;
3667;SDS011;24099;47.102;15.440;2023-01-01T01:14:05;4.45;;;2.35;;
3667;SDS011;24099;47.102;15.440;2023-01-01T01:16:33;5.05;;;2.67;;
3667;SDS011;24099;47.102;15.440;2023-01-01T01:19:03;5.93;;;3.45;;
3667;SDS011;24099;47.102;15.440;2023-01-01T01:21:32;3.80;;;2.20;;
3667;SDS011;24099;47.102;15.440;2023-01-01T01:24:02;4.07;;;3.10;;
3667;SDS011;24099;47.102;15.440;2023-01-01T01:26:30;3.33;;;1.95;;
3667;SDS011;24099;47.102;15.440;2023-01-01T01:28:59;5.28;;;2.20;;
3667;SDS011;24099;47.102;15.440;2023-01-01T01:31:28;5.18;;;2.10;;
3667;SDS011;24099;47.102;15.440;2023-01-01T01:33:57;2.38;;;1.98;;
3667;SDS011;24099;47.102;15.440;2023-01-01T01:36:26;4.75;;;2.45;;
3667;SDS011;24099;47.102;15.440;2023-01-01T01:38:54;3.50;;;2.38;;
3667;SDS011;24099;47.102;15.440;2023-01-01T01:41:23;5.57;;;2.80;;
3667;SDS011;24099;47.102;15.440;2023-01-01T01:43:53;6.32;;;2.95;;
3667;SDS011;24099;47.102;15.440;2023-01-01T01:46:25;4.13;;;3.10;;
3667;SDS011;24099;47.102;15.440;2023-01-01T01:48:56;3.55;;;2.45;;
3667;SDS011;24099;47.102;15.440;2023-01-01T01:51:29;4.60;;;2.50;;
3667;SDS011;24099;47.102;15.440;2023-01-01T01:54:02;5.20;;;1.90;;
3667;SDS011;24099;47.102;15.440;2023-01-01T01:56:38;4.35;;;2.45;;
3667;SDS011;24099;47.102;15.440;2023-01-01T01:59:10;6.75;;;2.83;;
3667;SDS011;24099;47.102;15.440;2023-01-01T02:01:39;5.95;;;2.50;;
3667;SDS011;24099;47.102;15.440;2023-01-01T02:04:07;6.20;;;2.58;;
3667;SDS011;24099;47.102;15.440;2023-01-01T02:06:35;2.95;;;2.13;;
3667;SDS011;24099;47.102;15.440;2023-01-01T02:09:05;4.10;;;2.28;;
3667;SDS011;24099;47.102;15.440;2023-01-01T02:11:34;3.33;;;1.85;;
3667;SDS011;24099;47.102;15.440;2023-01-01T02:14:03;5.28;;;1.75;;
3667;SDS011;24099;47.102;15.440;2023-01-01T02:16:33;4.03;;;2.60;;
3667;SDS011;24099;47.102;15.440;2023-01-01T02:19:11;8.18;;;2.78;;
3667;SDS011;24099;47.102;15.440;2023-01-01T02:21:48;2.75;;;1.90;;
3667;SDS011;24099;47.102;15.440;2023-01-01T02:24:38;3.40;;;2.00;;
3667;SDS011;24099;47.102;15.440;2023-01-01T02:27:18;2.30;;;1.70;;
3667;SDS011;24099;47.102;15.440;2023-01-01T02:29:56;5.05;;;1.83;;
3667;SDS011;24099;47.102;15.440;2023-01-01T02:32:28;3.10;;;1.90;;
3667;SDS011;24099;47.102;15.440;2023-01-01T02:35:02;9.40;;;2.53;;
3667;SDS011;24099;47.102;15.440;2023-01-01T02:37:48;2.20;;;1.48;;
3667;SDS011;24099;47.102;15.440;2023-01-01T02:40:20;2.13;;;1.77;;
3667;SDS011;24099;47.102;15.440;2023-01-01T02:42:50;3.28;;;2.38;;
3667;SDS011;24099;47.102;15.440;2023-01-01T02:45:20;2.60;;;1.67;;
3667;SDS011;24099;47.102;15.440;2023-01-01T02:47:48;3.58;;;1.58;;
3667;SDS011;24099;47.102;15.440;2023-01-01T02:50:18;6.00;;;2.45;;
3667;SDS011;24099;47.102;15.440;2023-01-01T02:52:55;1.92;;;1.45;;
3667;SDS011;24099;47.102;15.440;2023-01-01T02:55:35;1.83;;;1.60;;
3667;SDS011;24099;47.102;15.440;2023-01-01T02:58:11;2.08;;;1.90;;
3667;SDS011;24099;47.102;15.440;2023-01-01T03:01:04;9.35;;;1.83;;
3667;SDS011;24099;47.102;15.440;2023-01-01T03:03:38;2.15;;;1.63;;
3667;SDS011;24099;47.102;15.440;2023-01-01T03:06:12;3.97;;;2.00;;
3667;SDS011;24099;47.102;15.440;2023-01-01T03:08:48;1.98;;;1.25;;
3667;SDS011;24099;47.102;15.440;2023-01-01T03:11:24;1.30;;;1.08;;
3667;SDS011;24099;47.102;15.440;2023-01-01T03:14:00;2.30;;;1.65;;
3667;SDS011;24099;47.102;15.440;2023-01-01T03:16:35;2.22;;;1.40;;
3667;SDS011;24099;47.102;15.440;2023-01-01T03:19:09;5.03;;;1.48;;
3667;SDS011;24099;47.102;15.440;2023-01-01T03:21:42;3.28;;;1.48;;
3667;SDS011;24099;47.102;15.440;2023-01-01T03:24:16;3.30;;;1.52;;
3667;SDS011;24099;47.102;15.440;2023-01-01T03:26:50;2.47;;;1.23;;
3667;SDS011;24099;47.102;15.440;2023-01-01T03:29:22;2.13;;;1.20;;
3667;SDS011;24099;47.102;15.440;2023-01-01T03:31:55;4.40;;;1.67;;
3667;SDS011;24099;47.102;15.440;2023-01-01T03:34:26;2.95;;;1.48;;
3667;SDS011;24099;47.102;15.440;2023-01-01T03:36:59;0.80;;;0.80;;
3667;SDS011;24099;47.102;15.440;2023-01-01T03:39:33;4.00;;;1.30;;
3667;SDS011;24099;47.102;15.440;2023-01-01T03:42:06;2.10;;;1.88;;
3667;SDS011;24099;47.102;15.440;2023-01-01T03:44:42;3.00;;;1.88;;
3667;SDS011;24099;47.102;15.440;2023-01-01T03:47:14;1.40;;;1.30;;
3667;SDS011;24099;47.102;15.440;2023-01-01T03:49:42;2.78;;;1.20;;
3667;SDS011;24099;47.102;15.440;2023-01-01T03:52:22;2.40;;;1.10;;
3667;SDS011;24099;47.102;15.440;2023-01-01T03:54:59;2.10;;;1.08;;
3667;SDS011;24099;47.102;15.440;2023-01-01T03:57:36;1.48;;;1.38;;
3667;SDS011;24099;47.102;15.440;2023-01-01T04:00:10;3.58;;;1.35;;
3667;SDS011;24099;47.102;15.440;2023-01-01T04:02:43;0.90;;;0.77;;
3667;SDS011;24099;47.102;15.440;2023-01-01T04:05:16;0.63;;;0.60;;
3667;SDS011;24099;47.102;15.440;2023-01-01T04:07:45;3.33;;;1.33;;
3667;SDS011;24099;47.102;15.440;2023-01-01T04:10:14;1.70;;;1.58;;
3667;SDS011;24099;47.102;15.440;2023-01-01T04:12:43;0.75;;;0.57;;
3667;SDS011;24099;47.102;15.440;2023-01-01T04:15:14;1.00;;;0.90;;
3667;SDS011;24099;47.102;15.440;2023-01-01T04:17:44;1.98;;;1.77;;
3667;SDS011;24099;47.102;15.440;2023-01-01T04:20:12;1.92;;;1.58;;
3667;SDS011;24099;47.102;15.440;2023-01-01T04:22:40;3.28;;;1.45;;
3667;SDS011;24099;47.102;15.440;2023-01-01T04:25:09;4.82;;;1.73;;
3667;SDS011;24099;47.102;15.440;2023-01-01T04:27:37;3.45;;;1.45;;
3667;SDS011;24099;47.102;15.440;2023-01-01T04:30:07;0.80;;;0.73;;
3667;SDS011;24099;47.102;15.440;2023-01-01T04:32:36;2.03;;;1.10;;
3667;SDS011;24099;47.102;15.440;2023-01-01T04:35:07;1.88;;;1.23;;
3667;SDS011;24099;47.102;15.440;2023-01-01T04:37:36;1.08;;;0.70;;
3667;SDS011;24099;47.102;15.440;2023-01-01T04:40:05;6.07;;;1.30;;
3667;SDS011;24099;47.102;15.440;2023-01-01T04:42:34;12.05;;;1.35;;
3667;SDS011;24099;47.102;15.440;2023-01-01T04:45:02;1.25;;;0.88;;
3667;SDS011;24099;47.102;15.440;2023-01-01T04:47:32;0.60;;;0.60;;
3667;SDS011;24099;47.102;15.440;2023-01-01T04:50:00;1.85;;;1.60;;
3667;SDS011;24099;47.102;15.440;2023-01-01T04:52:29;1.73;;;1.33;;
3667;SDS011;24099;47.102;15.440;2023-01-01T04:54:56;0.50;;;0.43;;
3667;SDS011;24099;47.102;15.440;2023-01-01T04:57:24;2.83;;;1.98;;
3667;SDS011;24099;47.102;15.440;2023-01-01T04:59:54;1.65;;;1.23;;
3667;SDS011;24099;47.102;15.440;2023-01-01T05:02:21;1.15;;;1.15;;
3667;SDS011;24099;47.102;15.440;2023-01-01T05:04:49;1.02;;;0.85;;
3667;SDS011;24099;47.102;15.440;2023-01-01T05:07:18;1.80;;;0.77;;
3667;SDS011;24099;47.102;15.440;2023-01-01T05:09:47;1.42;;;1.33;;
3667;SDS011;24099;47.102;15.440;2023-01-01T05:12:14;1.17;;;0.85;;
3667;SDS011;24099;47.102;15.440;2023-01-01T05:14:42;1.40;;;0.80;;
3667;SDS011;24099;47.102;15.440;2023-01-01T05:17:09;1.67;;;1.25;;
3667;SDS011;24099;47.102;15.440;2023-01-01T05:19:37;1.77;;;1.20;;
3667;SDS011;24099;47.102;15.440;2023-01-01T05:22:05;0.88;;;0.85;;
3667;SDS011;24099;47.102;15.440;2023-01-01T05:24:32;6.63;;;0.70;;
3667;SDS011;24099;47.102;15.440;2023-01-01T05:27:03;1.52;;;1.15;;
3667;SDS011;24099;47.102;15.440;2023-01-01T05:29:30;0.85;;;0.85;;
3667;SDS011;24099;47.102;15.440;2023-01-01T05:31:58;1.98;;;1.38;;
3667;SDS011;24099;47.102;15.440;2023-01-01T05:34:26;1.83;;;0.60;;
3667;SDS011;24099;47.102;15.440;2023-01-01T05:36:54;1.52;;;0.93;;
3667;SDS011;24099;47.102;15.440;2023-01-01T05:39:21;1.20;;;0.68;;
3667;SDS011;24099;47.102;15.440;2023-01-01T05:41:49;1.67;;;0.88;;
3667;SDS011;24099;47.102;15.440;2023-01-01T05:44:18;0.80;;;0.80;;
3667;SDS011;24099;47.102;15.440;2023-01-01T05:46:45;3.20;;;1.45;;
3667;SDS011;24099;47.102;15.440;2023-01-01T05:49:13;4.43;;;2.10;;
3667;SDS011;24099;47.102;15.440;2023-01-01T05:51:41;1.95;;;0.80;;
3667;SDS011;24099;47.102;15.440;2023-01-01T05:54:09;1.05;;;1.00;;
3667;SDS011;24099;47.102;15.440;2023-01-01T05:56:37;1.80;;;1.27;;
3667;SDS011;24099;47.102;15.440;2023-01-01T05:59:04;1.27;;;1.17;;
3667;SDS011;24099;47.102;15.440;2023-01-01T06:01:33;1.35;;;0.68;;
3667;SDS011;24099;47.102;15.440;2023-01-01T06:04:01;2.15;;;1.23;;
3667;SDS011;24099;47.102;15.440;2023-01-01T06:06:29;1.58;;;1.48;;
3667;SDS011;24099;47.102;15.440;2023-01-01T06:08:58;0.60;;;0.60;;
3667;SDS011;24099;47.102;15.440;2023-01-01T06:11:27;1.85;;;1.48;;
3667;SDS011;24099;47.102;15.440;2023-01-01T06:13:56;5.15;;;1.60;;
3667;SDS011;24099;47.102;15.440;2023-01-01T06:16:26;1.08;;;1.02;;
3667;SDS011;24099;47.102;15.440;2023-01-01T06:18:56;2.20;;;1.23;;
3667;SDS011;24099;47.102;15.440;2023-01-01T06:21:24;1.00;;;0.88;;
3667;SDS011;24099;47.102;15.440;2023-01-01T06:23:53;2.10;;;1.23;;
3667;SDS011;24099;47.102;15.440;2023-01-01T06:26:22;8.07;;;1.98;;
3667;SDS011;24099;47.102;15.440;2023-01-01T06:28:52;1.23;;;1.00;;
3667;SDS011;24099;47.102;15.440;2023-01-01T06:31:20;1.33;;;0.80;;
3667;SDS011;24099;47.102;15.440;2023-01-01T06:33:49;2.55;;;1.25;;
3667;SDS011;24099;47.102;15.440;2023-01-01T06:36:18;1.38;;;1.25;;
3667;SDS011;24099;47.102;15.440;2023-01-01T06:38:48;0.98;;;0.88;;
3667;SDS011;24099;47.102;15.440;2023-01-01T06:41:17;1.75;;;1.13;;
3667;SDS011;24099;47.102;15.440;2023-01-01T06:43:46;3.03;;;1.70;;
3667;SDS011;24099;47.102;15.440;2023-01-01T06:46:15;0.95;;;0.95;;
3667;SDS011;24099;47.102;15.440;2023-01-01T06:48:44;2.95;;;1.73;;
3667;SDS011;24099;47.102;15.440;2023-01-01T06:51:13;1.20;;;1.13;;
3667;SDS011;24099;47.102;15.440;2023-01-01T06:53:43;0.55;;;0.55;;
3667;SDS011;24099;47.102;15.440;2023-01-01T06:56:11;1.23;;;1.08;;
3667;SDS011;24099;47.102;15.440;2023-01-01T06:58:39;1.60;;;1.08;;
3667;SDS011;24099;47.102;15.440;2023-01-01T07:01:08;0.80;;;0.73;;
3667;SDS011;24099;47.102;15.440;2023-01-01T07:03:37;0.70;;;0.70;;
3667;SDS011;24099;47.102;15.440;2023-01-01T07:06:06;2.50;;;1.17;;
3667;SDS011;24099;47.102;15.440;2023-01-01T07:08:35;2.50;;;1.77;;
3667;SDS011;24099;47.102;15.440;2023-01-01T07:11:05;0.70;;;0.70;;
3667;SDS011;24099;47.102;15.440;2023-01-01T07:13:32;1.40;;;1.30;;
3667;SDS011;24099;47.102;15.440;2023-01-01T07:16:00;2.58;;;0.95;;
3667;SDS011;24099;47.102;15.440;2023-01-01T07:18:28;0.93;;;0.88;;
3667;SDS011;24099;47.102;15.440;2023-01-01T07:20:56;0.93;;;0.80;;
3667;SDS011;24099;47.102;15.440;2023-01-01T07:23:26;2.67;;;1.90;;
3667;SDS011;24099;47.102;15.440;2023-01-01T07:25:56;1.92;;;1.60;;
3667;SDS011;24099;47.102;15.440;2023-01-01T07:28:26;1.27;;;1.10;;
3667;SDS011;24099;47.102;15.440;2023-01-01T07:30:54;2.10;;;1.50;;
3667;SDS011;24099;47.102;15.440;2023-01-01T07:33:22;2.17;;;0.82;;
3667;SDS011;24099;47.102;15.440;2023-01-01T07:35:49;1.58;;;1.48;;
3667;SDS011;24099;47.102;15.440;2023-01-01T07:38:17;4.38;;;1.67;;
3667;SDS011;24099;47.102;15.440;2023-01-01T07:40:44;2.45;;;1.48;;
3667;SDS011;24099;47.102;15.440;2023-01-01T07:43:12;3.13;;;1.15;;
3667;SDS011;24099;47.102;15.440;2023-01-01T07:45:40;1.88;;;1.10;;
3667;SDS011;24099;47.102;15.440;2023-01-01T07:48:08;2.10;;;1.23;;
3667;SDS011;24099;47.102;15.440;2023-01-01T07:50:40;2.47;;;1.77;;
3667;SDS011;24099;47.102;15.440;2023-01-01T07:53:08;1.00;;;0.77;;
3667;SDS011;24099;47.102;15.440;2023-01-01T07:55:36;1.95;;;1.42;;
3667;SDS011;24099;47.102;15.440;2023-01-01T07:58:03;2.80;;;1.75;;
3667;SDS011;24099;47.102;15.440;2023-01-01T08:00:31;1.27;;;1.17;;
3667;SDS011;24099;47.102;15.440;2023-01-01T08:02:59;2.33;;;1.25;;
3667;SDS011;24099;47.102;15.440;2023-01-01T08:05:27;1.13;;;1.02;;
3667;SDS011;24099;47.102;15.440;2023-01-01T08:07:54;3.05;;;1.98;;
3667;SDS011;24099;47.102;15.440;2023-01-01T08:10:22;1.60;;;1.30;;
3667;SDS011;24099;47.102;15.440;2023-01-01T08:12:49;1.73;;;1.63;;
3667;SDS011;24099;47.102;15.440;2023-01-01T08:15:17;1.70;;;1.55;;
3667;SDS011;24099;47.102;15.440;2023-01-01T08:17:45;1.92;;;0.90;;
3667;SDS011;24099;47.102;15.440;2023-01-01T08:20:14;2.13;;;1.08;;
3667;SDS011;24099;47.102;15.440;2023-01-01T08:22:41;3.28;;;1.77;;
3667;SDS011;24099;47.102;15.440;2023-01-01T08:25:09;4.65;;;2.00;;
3667;SDS011;24099;47.102;15.440;2023-01-01T08:27:37;2.20;;;1.48;;
3667;SDS011;24099;47.102;15.440;2023-01-01T08:30:05;3.80;;;1.42;;
3667;SDS011;24099;47.102;15.440;2023-01-01T08:32:35;2.20;;;1.30;;
3667;SDS011;24099;47.102;15.440;2023-01-01T08:35:04;2.13;;;1.58;;
3667;SDS011;24099;47.102;15.440;2023-01-01T08:37:34;1.58;;;1.23;;
3667;SDS011;24099;47.102;15.440;2023-01-01T08:40:01;2.35;;;1.25;;
3667;SDS011;24099;47.102;15.440;2023-01-01T08:42:30;1.15;;;1.05;;
3667;SDS011;24099;47.102;15.440;2023-01-01T08:44:57;1.90;;;1.33;;
3667;SDS011;24099;47.102;15.440;2023-01-01T08:47:25;3.80;;;2.38;;
3667;SDS011;24099;47.102;15.440;2023-01-01T08:49:54;2.17;;;1.73;;
3667;SDS011;24099;47.102;15.440;2023-01-01T08:52:21;2.28;;;1.25;;
3667;SDS011;24099;47.102;15.440;2023-01-01T08:54:50;3.35;;;1.52;;
3667;SDS011;24099;47.102;15.440;2023-01-01T08:57:18;8.30;;;1.98;;
3667;SDS011;24099;47.102;15.440;2023-01-01T08:59:45;3.25;;;1.92;;
3667;SDS011;24099;47.102;15.440;2023-01-01T09:02:13;1.67;;;1.55;;
3667;SDS011;24099;47.102;15.440;2023-01-01T09:04:40;1.52;;;1.17;;
3667;SDS011;24099;47.102;15.440;2023-01-01T09:07:08;1.98;;;1.42;;
3667;SDS011;24099;47.102;15.440;2023-01-01T09:09:35;1.80;;;1.52;;
3667;SDS011;24099;47.102;15.440;2023-01-01T09:12:04;1.80;;;0.90;;
3667;SDS011;24099;47.102;15.440;2023-01-01T09:14:33;3.20;;;1.55;;
3667;SDS011;24099;47.102;15.440;2023-01-01T09:17:01;1.35;;;0.98;;
3667;SDS011;24099;47.102;15.440;2023-01-01T09:19:29;2.28;;;1.73;;
3667;SDS011;24099;47.102;15.440;2023-01-01T09:21:56;1.42;;;1.33;;
3667;SDS011;24099;47.102;15.440;2023-01-01T09:24:24;1.73;;;1.50;;
3667;SDS011;24099;47.102;15.440;2023-01-01T09:26:52;5.07;;;1.40;;
3667;SDS011;24099;47.102;15.440;2023-01-01T09:29:21;5.05;;;1.88;;
3667;SDS011;24099;47.102;15.440;2023-01-01T09:31:49;6.20;;;2.78;;
3667;SDS011;24099;47.102;15.440;2023-01-01T09:34:17;3.20;;;1.55;;
3667;SDS011;24099;47.102;15.440;2023-01-01T09:36:45;2.88;;;1.65;;
3667;SDS011;24099;47.102;15.440;2023-01-01T09:39:13;0.98;;;0.88;;
3667;SDS011;24099;47.102;15.440;2023-01-01T09:41:44;2.22;;;1.08;;
3667;SDS011;24099;47.102;15.440;2023-01-01T09:44:26;3.28;;;0.98;;
3667;SDS011;24099;47.102;15.440;2023-01-01T09:47:11;2.58;;;1.77;;
3667;SDS011;24099;47.102;15.440;2023-01-01T09:49:47;1.75;;;1.50;;
3667;SDS011;24099;47.102;15.440;2023-01-01T09:52:17;2.92;;;1.58;;
3667;SDS011;24099;47.102;15.440;2023-01-01T09:54:47;1.45;;;1.10;;
3667;SDS011;24099;47.102;15.440;2023-01-01T09:57:21;1.38;;;1.27;;
3667;SDS011;24099;47.102;15.440;2023-01-01T09:59:55;1.00;;;0.88;;
3667;SDS011;24099;47.102;15.440;2023-01-01T10:02:32;1.83;;;1.35;;
3667;SDS011;24099;47.102;15.440;2023-01-01T10:05:12;1.25;;;0.93;;
3667;SDS011;24099;47.102;15.440;2023-01-01T10:07:53;3.28;;;1.90;;
3667;SDS011;24099;47.102;15.440;2023-01-01T10:10:30;2.58;;;1.27;;
3667;SDS011;24099;47.102;15.440;2023-01-01T10:13:05;4.85;;;1.60;;
3667;SDS011;24099;47.102;15.440;2023-01-01T10:15:49;3.90;;;1.45;;
3667;SDS011;24099;47.102;15.440;2023-01-01T10:18:23;2.40;;;1.50;;
3667;SDS011;24099;47.102;15.440;2023-01-01T10:20:57;4.45;;;1.50;;
3667;SDS011;24099;47.102;15.440;2023-01-01T10:23:30;1.95;;;1.20;;
3667;SDS011;24099;47.102;15.440;2023-01-01T10:26:06;1.00;;;0.82;;
3667;SDS011;24099;47.102;15.440;2023-01-01T10:28:39;2.45;;;1.25;;
3667;SDS011;24099;47.102;15.440;2023-01-01T10:33:44;1.85;;;0.77;;
3667;SDS011;24099;47.102;15.440;2023-01-01T10:36:13;1.30;;;1.20;;
3667;SDS011;24099;47.102;15.440;2023-01-01T10:38:45;4.07;;;1.50;;
3667;SDS011;24099;47.102;15.440;2023-01-01T10:41:13;1.35;;;1.00;;
3667;SDS011;24099;47.102;15.440;2023-01-01T10:43:42;1.90;;;1.15;;
3667;SDS011;24099;47.102;15.440;2023-01-01T10:46:11;1.38;;;1.27;;
3667;SDS011;24099;47.102;15.440;2023-01-01T10:48:43;2.47;;;1.20;;
3667;SDS011;24099;47.102;15.440;2023-01-01T10:51:31;3.92;;;1.20;;
3667;SDS011;24099;47.102;15.440;2023-01-01T10:54:00;2.97;;;1.25;;
3667;SDS011;24099;47.102;15.440;2023-01-01T10:56:37;4.90;;;2.15;;
3667;SDS011;24099;47.102;15.440;2023-01-01T10:59:30;7.47;;;2.38;;
3667;SDS011;24099;47.102;15.440;2023-01-01T11:02:13;9.98;;;2.45;;
3667;SDS011;24099;47.102;15.440;2023-01-01T11:04:44;10.60;;;3.47;;
3667;SDS011;24099;47.102;15.440;2023-01-01T11:07:17;4.18;;;2.70;;
3667;SDS011;24099;47.102;15.440;2023-01-01T11:09:51;3.15;;;1.98;;
3667;SDS011;24099;47.102;15.440;2023-01-01T11:12:24;6.60;;;2.63;;
3667;SDS011;24099;47.102;15.440;2023-01-01T11:14:55;2.65;;;1.67;;
3667;SDS011;24099;47.102;15.440;2023-01-01T11:17:24;2.08;;;1.63;;
3667;SDS011;24099;47.102;15.440;2023-01-01T11:19:56;2.67;;;1.52;;
3667;SDS011;24099;47.102;15.440;2023-01-01T11:22:35;2.15;;;1.05;;
3667;SDS011;24099;47.102;15.440;2023-01-01T11:25:15;2.25;;;1.67;;
3667;SDS011;24099;47.102;15.440;2023-01-01T11:27:45;3.65;;;1.80;;
3667;SDS011;24099;47.102;15.440;2023-01-01T11:30:31;4.80;;;1.85;;
3667;SDS011;24099;47.102;15.440;2023-01-01T11:33:01;2.88;;;1.70;;
3667;SDS011;24099;47.102;15.440;2023-01-01T11:35:32;10.18;;;1.92;;
3667;SDS011;24099;47.102;15.440;2023-01-01T11:38:14;9.52;;;2.97;;
3667;SDS011;24099;47.102;15.440;2023-01-01T11:40:45;3.78;;;2.05;;
3667;SDS011;24099;47.102;15.440;2023-01-01T11:43:18;8.32;;;3.20;;
3667;SDS011;24099;47.102;15.440;2023-01-01T11:45:49;7.90;;;3.08;;
3667;SDS011;24099;47.102;15.440;2023-01-01T11:48:19;5.40;;;2.28;;
3667;SDS011;24099;47.102;15.440;2023-01-01T11:50:53;5.72;;;2.88;;
3667;SDS011;24099;47.102;15.440;2023-01-01T11:53:27;5.53;;;2.50;;
3667;SDS011;24099;47.102;15.440;2023-01-01T11:56:02;8.05;;;2.53;;
3667;SDS011;24099;47.102;15.440;2023-01-01T11:58:39;3.47;;;1.98;;
3667;SDS011;24099;47.102;15.440;2023-01-01T12:01:16;5.35;;;1.73;;
3667;SDS011;24099;47.102;15.440;2023-01-01T12:03:50;3.53;;;2.08;;
3667;SDS011;24099;47.102;15.440;2023-01-01T12:06:26;9.95;;;2.25;;
3667;SDS011;24099;47.102;15.440;2023-01-01T12:08:59;6.57;;;2.67;;
3667;SDS011;24099;47.102;15.440;2023-01-01T12:11:32;3.20;;;2.15;;
3667;SDS011;24099;47.102;15.440;2023-01-01T12:14:09;3.80;;;1.98;;
3667;SDS011;24099;47.102;15.440;2023-01-01T12:19:15;3.50;;;1.90;;
3667;SDS011;24099;47.102;15.440;2023-01-01T12:21:49;4.28;;;2.42;;
3667;SDS011;24099;47.102;15.440;2023-01-01T12:24:22;7.38;;;2.95;;
3667;SDS011;24099;47.102;15.440;2023-01-01T12:26:59;5.70;;;2.40;;
3667;SDS011;24099;47.102;15.440;2023-01-01T12:29:48;9.02;;;3.10;;
3667;SDS011;24099;47.102;15.440;2023-01-01T12:32:28;7.78;;;2.53;;
3667;SDS011;24099;47.102;15.440;2023-01-01T12:35:12;5.80;;;2.08;;
3667;SDS011;24099;47.102;15.440;2023-01-01T12:37:54;4.13;;;2.15;;
3667;SDS011;24099;47.102;15.440;2023-01-01T12:40:41;4.03;;;2.08;;
3667;SDS011;24099;47.102;15.440;2023-01-01T12:43:17;5.00;;;1.75;;
3667;SDS011;24099;47.102;15.440;2023-01-01T12:51:35;3.55;;;2.42;;
3667;SDS011;24099;47.102;15.440;2023-01-01T12:54:24;2.95;;;1.92;;
3667;SDS011;24099;47.102;15.440;2023-01-01T12:57:05;7.53;;;2.50;;
3667;SDS011;24099;47.102;15.440;2023-01-01T12:59:40;3.53;;;1.75;;
3667;SDS011;24099;47.102;15.440;2023-01-01T13:02:12;6.60;;;2.33;;
3667;SDS011;24099;47.102;15.440;2023-01-01T13:04:44;2.65;;;1.60;;
3667;SDS011;24099;47.102;15.440;2023-01-01T13:07:13;4.97;;;2.35;;
3667;SDS011;24099;47.102;15.440;2023-01-01T13:09:44;5.07;;;2.33;;
3667;SDS011;24099;47.102;15.440;2023-01-01T13:12:13;4.63;;;2.30;;
3667;SDS011;24099;47.102;15.440;2023-01-01T13:14:43;3.47;;;1.95;;
3667;SDS011;24099;47.102;15.440;2023-01-01T13:17:17;4.05;;;2.50;;
3667;SDS011;24099;47.102;15.440;2023-01-01T13:19:46;5.57;;;2.17;;
3667;SDS011;24099;47.102;15.440;2023-01-01T13:25:18;7.03;;;2.65;;
3667;SDS011;24099;47.102;15.440;2023-01-01T13:30:44;5.57;;;2.83;;
3667;SDS011;24099;47.102;15.440;2023-01-01T13:33:18;7.60;;;2.60;;
3667;SDS011;24099;47.102;15.440;2023-01-01T13:38:58;6.32;;;3.35;;
3667;SDS011;24099;47.102;15.440;2023-01-01T13:41:31;7.57;;;3.58;;
3667;SDS011;24099;47.102;15.440;2023-01-01T13:44:16;6.35;;;3.03;;
3667;SDS011;24099;47.102;15.440;2023-01-01T13:47:02;5.32;;;3.03;;
3667;SDS011;24099;47.102;15.440;2023-01-01T13:50:00;7.57;;;2.47;;
3667;SDS011;24099;47.102;15.440;2023-01-01T13:52:42;9.00;;;2.80;;
3667;SDS011;24099;47.102;15.440;2023-01-01T13:55:38;4.65;;;1.92;;
3667;SDS011;24099;47.102;15.440;2023-01-01T14:04:26;4.30;;;2.15;;
3667;SDS011;24099;47.102;15.440;2023-01-01T14:07:00;5.35;;;2.25;;
3667;SDS011;24099;47.102;15.440;2023-01-01T14:09:37;6.05;;;2.67;;
3667;SDS011;24099;47.102;15.440;2023-01-01T14:12:08;10.38;;;2.60;;
3667;SDS011;24099;47.102;15.440;2023-01-01T14:14:41;6.35;;;2.55;;
3667;SDS011;24099;47.102;15.440;2023-01-01T14:17:10;5.63;;;2.58;;
3667;SDS011;24099;47.102;15.440;2023-01-01T14:19:40;6.30;;;2.70;;
3667;SDS011;24099;47.102;15.440;2023-01-01T14:22:09;4.28;;;2.38;;
3667;SDS011;24099;47.102;15.440;2023-01-01T14:24:42;3.65;;;2.13;;
3667;SDS011;24099;47.102;15.440;2023-01-01T14:27:14;3.72;;;1.92;;
3667;SDS011;24099;47.102;15.440;2023-01-01T14:29:47;2.60;;;1.80;;
3667;SDS011;24099;47.102;15.440;2023-01-01T14:32:20;4.20;;;1.50;;
3667;SDS011;24099;47.102;15.440;2023-01-01T14:34:57;1.98;;;1.48;;
3667;SDS011;24099;47.102;15.440;2023-01-01T14:37:26;2.47;;;1.67;;
3667;SDS011;24099;47.102;15.440;2023-01-01T14:40:07;3.13;;;1.60;;
3667;SDS011;24099;47.102;15.440;2023-01-01T14:42:41;4.10;;;2.05;;
3667;SDS011;24099;47.102;15.440;2023-01-01T14:45:16;2.95;;;1.70;;
3667;SDS011;24099;47.102;15.440;2023-01-01T14:47:45;2.67;;;1.15;;
3667;SDS011;24099;47.102;15.440;2023-01-01T14:50:18;2.10;;;1.25;;
3667;SDS011;24099;47.102;15.440;2023-01-01T14:52:51;3.88;;;1.83;;
3667;SDS011;24099;47.102;15.440;2023-01-01T14:55:23;2.28;;;1.42;;
3667;SDS011;24099;47.102;15.440;2023-01-01T14:57:57;1.73;;;1.08;;
3667;SDS011;24099;47.102;15.440;2023-01-01T15:00:28;2.15;;;1.48;;
3667;SDS011;24099;47.102;15.440;2023-01-01T15:03:04;1.67;;;1.27;;
3667;SDS011;24099;47.102;15.440;2023-01-01T15:05:37;1.58;;;1.40;;
3667;SDS011;24099;47.102;15.440;2023-01-01T15:08:05;1.90;;;1.10;;
3667;SDS011;24099;47.102;15.440;2023-01-01T15:10:45;1.60;;;1.00;;
3667;SDS011;24099;47.102;15.440;2023-01-01T15:13:18;1.75;;;1.02;;
3667;SDS011;24099;47.102;15.440;2023-01-01T15:15:49;3.03;;;1.77;;
3667;SDS011;24099;47.102;15.440;2023-01-01T15:18:36;1.70;;;1.27;;
3667;SDS011;24099;47.102;15.440;2023-01-01T15:21:06;2.90;;;1.40;;
3667;SDS011;24099;47.102;15.440;2023-01-01T15:23:42;1.65;;;1.33;;
3667;SDS011;24099;47.102;15.440;2023-01-01T15:26:23;1.25;;;1.13;;
3667;SDS011;24099;47.102;15.440;2023-01-01T15:28:54;2.42;;;1.52;;
3667;SDS011;24099;47.102;15.440;2023-01-01T15:31:24;2.92;;;1.85;;
3667;SDS011;24099;47.102;15.440;2023-01-01T15:34:01;3.58;;;1.65;;
3667;SDS011;24099;47.102;15.440;2023-01-01T15:36:29;3.55;;;1.95;;
3667;SDS011;24099;47.102;15.440;2023-01-01T15:38:58;2.05;;;1.30;;
3667;SDS011;24099;47.102;15.440;2023-01-01T15:41:36;2.25;;;1.63;;